Time,TemperatureF,DewpointF,PressureIn,WindDirection,WindDirectionDegrees,WindSpeedMPH,WindSpeedGustMPH,Humidity,HourlyPrecipIn,Conditions,Clouds,dailyrainin,SoftwareType,DateUTC
2013-07-16 00:05:00,72.4,71.0,30.28,SSW,197,0.0,0.0,96,0.00,,,0.00,weatherlink.com 1.10,2013-07-16 04:05:00,
2013-07-16 00:20:00,72.0,71.0,30.28,SSW,197,0.0,0.0,96,0.00,,,0.00,weatherlink.com 1.10,2013-07-16 04:20:00,
2013-07-16 00:35:00,72.1,71.0,30.28,SSW,197,0.0,0.0,97,0.00,,,0.00,weatherlink.com 1.10,2013-07-16 04:35:00,
2013-07-16 00:50:00,72.0,71.0,30.28,SSW,197,0.0,0.0,97,0.00,,,0.00,weatherlink.com 1.10,2013-07-16 04:50:00,
2013-07-16 01:05:00,71.8,71.0,30.28,SSW,197,0.0,0.0,97,0.00,,,0.00,weatherlink.com 1.10,2013-07-16 05:05:00,
2013-07-16 01:20:00,71.7,71.0,30.27,SSW,197,0.0,0.0,97,0.00,,,0.00,weatherlink.com 1.10,2013-07-16 05:20:00,
2013-07-16 01:35:00,71.6,71.0,30.27,SSW,197,0.0,0.0,97,0.00,,,0.00,weatherlink.com 1.10,2013-07-16 05:35:00,
2013-07-16 01:50:00,71.4,71.0,30.27,SSW,197,0.0,0.0,97,0.00,,,0.00,weatherlink.com 1.10,2013-07-16 05:50:00,
2013-07-16 02:05:00,71.5,71.0,30.27,SSW,197,0.0,0.0,97,0.00,,,0.00,weatherlink.com 1.10,2013-07-16 06:05:00,
2013-07-16 02:20:00,71.4,71.0,30.27,SSW,197,0.0,0.0,97,0.00,,,0.00,weatherlink.com 1.10,2013-07-16 06:20:00,
2013-07-16 02:35:00,71.2,70.0,30.27,SSW,197,0.0,0.0,97,0.00,,,0.00,weatherlink.com 1.10,2013-07-16 06:35:00,
2013-07-16 02:50:00,70.9,70.0,30.27,SSW,197,0.0,0.0,97,0.00,,,0.00,weatherlink.com 1.10,2013-07-16 06:50:00,
2013-07-16 03:05:00,70.9,70.0,30.27,SSW,197,0.0,0.0,97,0.00,,,0.00,weatherlink.com 1.10,2013-07-16 07:05:00,
2013-07-16 03:20:00,70.9,70.0,30.27,SSW,197,0.0,0.0,97,0.00,,,0.00,weatherlink.com 1.10,2013-07-16 07:20:00,
2013-07-16 03:35:00,70.7,70.0,30.26,SSW,198,0.0,0.0,97,0.00,,,0.00,weatherlink.com 1.10,2013-07-16 07:35:00,
2013-07-16 03:50:00,70.5,70.0,30.26,SSW,197,0.0,0.0,97,0.00,,,0.00,weatherlink.com 1.10,2013-07-16 07:50:00,
2013-07-16 04:05:00,70.7,70.0,30.26,SSW,197,0.0,0.0,98,0.00,,,0.00,weatherlink.com 1.10,2013-07-16 08:05:00,
2013-07-16 04:20:00,70.7,70.0,30.26,SSW,197,0.0,0.0,98,0.00,,,0.00,weatherlink.com 1.10,2013-07-16 08:20:00,
2013-07-16 04:35:00,70.6,70.0,30.26,SSW,197,0.0,0.0,98,0.00,,,0.00,weatherlink.com 1.10,2013-07-16 08:35:00,
2013-07-16 04:50:00,70.5,70.0,30.26,SSW,197,0.0,0.0,98,0.00,,,0.00,weatherlink.com 1.10,2013-07-16 08:50:00,
2013-07-16 05:05:00,70.4,70.0,30.26,SSW,197,0.0,0.0,98,0.00,,,0.00,weatherlink.com 1.10,2013-07-16 09:05:00,
2013-07-16 05:20:00,70.4,70.0,30.26,SSW,197,0.0,0.0,98,0.00,,,0.00,weatherlink.com 1.10,2013-07-16 09:20:00,
2013-07-16 05:35:00,70.3,70.0,30.26,SSW,197,0.0,0.0,98,0.00,,,0.00,weatherlink.com 1.10,2013-07-16 09:35:00,
2013-07-16 05:51:00,70.0,69.0,30.27,SSW,197,0.0,0.0,98,0.00,,,0.00,weatherlink.com 1.10,2013-07-16 09:51:00,
2013-07-16 06:06:00,69.6,69.0,30.27,SSW,197,0.0,0.0,98,0.00,,,0.00,weatherlink.com 1.10,2013-07-16 10:06:00,
2013-07-16 06:21:00,69.3,69.0,30.27,SSW,197,0.0,0.0,98,0.00,,,0.00,weatherlink.com 1.10,2013-07-16 10:21:00,
2013-07-16 06:36:00,69.1,69.0,30.27,SSW,197,0.0,0.0,98,0.00,,,0.00,weatherlink.com 1.10,2013-07-16 10:36:00,
2013-07-16 06:51:00,69.0,69.0,30.27,SSW,197,0.0,0.0,98,0.00,,,0.00,weatherlink.com 1.10,2013-07-16 10:51:00,
2013-07-16 07:06:00,69.0,69.0,30.27,SSW,198,0.0,0.0,98,0.00,,,0.00,weatherlink.com 1.10,2013-07-16 11:06:00,
2013-07-16 07:21:00,69.0,69.0,30.27,SSW,197,0.0,0.0,98,0.00,,,0.00,weatherlink.com 1.10,2013-07-16 11:21:00,
2013-07-16 07:36:00,69.1,69.0,30.27,SSW,197,0.0,0.0,98,0.00,,,0.00,weatherlink.com 1.10,2013-07-16 11:36:00,
2013-07-16 07:51:00,69.3,69.0,30.27,SSW,197,0.0,0.0,98,0.00,,,0.00,weatherlink.com 1.10,2013-07-16 11:51:00,
2013-07-16 08:06:00,69.7,69.0,30.28,SSW,197,0.0,0.0,98,0.00,,,0.00,weatherlink.com 1.10,2013-07-16 12:06:00,
2013-07-16 08:21:00,70.7,70.0,30.28,SSW,197,0.0,0.0,98,0.00,,,0.00,weatherlink.com 1.10,2013-07-16 12:21:00,
2013-07-16 08:36:00,71.5,71.0,30.28,SSW,197,0.0,0.0,98,0.00,,,0.00,weatherlink.com 1.10,2013-07-16 12:36:00,
2013-07-16 08:51:00,72.2,72.0,30.29,SSW,195,0.0,0.0,98,0.00,,,0.00,weatherlink.com 1.10,2013-07-16 12:51:00,
2013-07-16 09:06:00,72.7,72.0,30.29,SSW,195,0.0,0.0,98,0.00,,,0.00,weatherlink.com 1.10,2013-07-16 13:06:00,
2013-07-16 09:21:00,73.4,73.0,30.29,SSW,195,0.0,0.0,98,0.00,,,0.00,weatherlink.com 1.10,2013-07-16 13:21:00,
2013-07-16 09:36:00,74.3,73.0,30.29,SSW,195,0.0,0.0,95,0.00,,,0.00,weatherlink.com 1.10,2013-07-16 13:36:00,
2013-07-16 09:51:00,75.4,73.0,30.28,SSW,193,0.0,0.0,92,0.00,,,0.00,weatherlink.com 1.10,2013-07-16 13:51:00,
2013-07-16 10:06:00,76.1,73.0,30.28,SSW,193,0.0,0.0,89,0.00,,,0.00,weatherlink.com 1.10,2013-07-16 14:06:00,
2013-07-16 10:21:00,76.8,72.0,30.28,West,276,0.0,1.0,86,0.00,,,0.00,weatherlink.com 1.10,2013-07-16 14:21:00,
2013-07-16 10:36:00,77.9,72.0,30.29,West,274,1.0,1.0,83,0.00,,,0.00,weatherlink.com 1.10,2013-07-16 14:36:00,
2013-07-16 10:51:00,78.8,72.0,30.29,ENE,75,1.0,2.0,79,0.00,,,0.00,weatherlink.com 1.10,2013-07-16 14:51:00,
2013-07-16 11:06:00,79.5,73.0,30.28,ENE,78,0.0,1.0,80,0.00,,,0.00,weatherlink.com 1.10,2013-07-16 15:06:00,
2013-07-16 11:21:00,80.5,72.0,30.28,ENE,78,0.0,1.0,76,0.00,,,0.00,weatherlink.com 1.10,2013-07-16 15:21:00,
2013-07-16 11:36:00,83.0,74.0,30.27,ENE,77,0.0,1.0,74,0.00,,,0.00,weatherlink.com 1.10,2013-07-16 15:36:00,
2013-07-16 11:51:00,83.8,73.0,30.27,NE,43,0.0,1.0,70,0.00,,,0.00,weatherlink.com 1.10,2013-07-16 15:51:00,
2013-07-16 12:06:00,83.9,74.0,30.27,ENE,59,0.0,1.0,71,0.00,,,0.00,weatherlink.com 1.10,2013-07-16 16:06:00,
2013-07-16 12:21:00,84.0,75.0,30.27,ENE,60,0.0,1.0,74,0.00,,,0.00,weatherlink.com 1.10,2013-07-16 16:21:00,
2013-07-16 12:36:00,85.9,76.0,30.26,NNE,20,2.0,2.0,73,0.00,,,0.00,weatherlink.com 1.10,2013-07-16 16:36:00,
2013-07-16 12:51:00,87.9,76.0,30.26,North,356,1.0,2.0,67,0.00,,,0.00,weatherlink.com 1.10,2013-07-16 16:51:00,
2013-07-16 13:06:00,89.5,77.0,30.25,East,86,0.0,1.0,66,0.00,,,0.00,weatherlink.com 1.10,2013-07-16 17:06:00,
2013-07-16 13:21:00,89.6,77.0,30.25,ESE,113,0.0,4.0,66,0.00,,,0.00,weatherlink.com 1.10,2013-07-16 17:21:00,
2013-07-16 13:37:00,91.9,79.0,30.25,South,184,0.0,1.0,65,0.00,,,0.00,weatherlink.com 1.10,2013-07-16 17:37:00,
2013-07-16 13:52:00,91.9,77.0,30.24,ESE,117,0.0,1.0,62,0.00,,,0.00,weatherlink.com 1.10,2013-07-16 17:52:00,
2013-07-16 14:07:00,90.0,76.0,30.23,ESE,122,0.0,2.0,64,0.00,,,0.00,weatherlink.com 1.10,2013-07-16 18:07:00,
2013-07-16 14:22:00,90.3,77.0,30.23,ESE,113,0.0,1.0,65,0.00,,,0.00,weatherlink.com 1.10,2013-07-16 18:22:00,
2013-07-16 14:37:00,91.1,78.0,30.23,NE,47,0.0,2.0,65,0.00,,,0.00,weatherlink.com 1.10,2013-07-16 18:37:00,
2013-07-16 14:52:00,92.9,77.0,30.22,SSE,150,1.0,2.0,60,0.00,,,0.00,weatherlink.com 1.10,2013-07-16 18:52:00,
2013-07-16 15:07:00,93.2,77.0,30.22,NW,312,1.0,2.0,60,0.00,,,0.00,weatherlink.com 1.10,2013-07-16 19:07:00,
2013-07-16 15:22:00,92.2,74.0,30.22,WNW,298,0.0,4.0,56,0.00,,,0.00,weatherlink.com 1.10,2013-07-16 19:22:00,
2013-07-16 15:37:00,91.9,79.0,30.22,WSW,240,0.0,4.0,65,0.00,,,0.00,weatherlink.com 1.10,2013-07-16 19:37:00,
2013-07-16 15:52:00,91.3,73.0,30.21,NNW,340,0.0,3.0,56,0.00,,,0.00,weatherlink.com 1.10,2013-07-16 19:52:00,
2013-07-16 16:07:00,90.7,76.0,30.21,NW,309,0.0,2.0,63,0.00,,,0.00,weatherlink.com 1.10,2013-07-16 20:07:00,
2013-07-16 16:22:00,91.9,74.0,30.21,WNW,293,1.0,2.0,57,0.00,,,0.00,weatherlink.com 1.10,2013-07-16 20:22:00,
2013-07-16 16:37:00,92.6,77.0,30.20,WNW,289,0.0,1.0,60,0.00,,,0.00,weatherlink.com 1.10,2013-07-16 20:37:00,
2013-07-16 16:52:00,92.6,76.0,30.20,SE,144,0.0,1.0,59,0.00,,,0.00,weatherlink.com 1.10,2013-07-16 20:52:00,
2013-07-16 17:07:00,92.7,75.0,30.20,SW,226,0.0,1.0,57,0.00,,,0.00,weatherlink.com 1.10,2013-07-16 21:07:00,
2013-07-16 17:22:00,91.4,75.0,30.20,South,177,0.0,1.0,59,0.00,,,0.00,weatherlink.com 1.10,2013-07-16 21:22:00,
2013-07-16 17:37:00,89.6,72.0,30.20,SW,221,0.0,1.0,57,0.00,,,0.00,weatherlink.com 1.10,2013-07-16 21:37:00,
2013-07-16 17:52:00,88.4,73.0,30.19,SSE,153,0.0,1.0,60,0.00,,,0.00,weatherlink.com 1.10,2013-07-16 21:52:00,
2013-07-16 18:07:00,87.8,75.0,30.19,SSE,153,1.0,1.0,65,0.00,,,0.00,weatherlink.com 1.10,2013-07-16 22:07:00,
2013-07-16 18:22:00,87.0,75.0,30.20,SSE,153,0.0,1.0,68,0.00,,,0.00,weatherlink.com 1.10,2013-07-16 22:22:00,
2013-07-16 18:37:00,86.5,75.0,30.19,SSE,154,0.0,1.0,68,0.00,,,0.00,weatherlink.com 1.10,2013-07-16 22:37:00,
2013-07-16 18:52:00,86.0,75.0,30.19,SSE,153,0.0,1.0,70,0.00,,,0.00,weatherlink.com 1.10,2013-07-16 22:52:00,
2013-07-16 19:07:00,85.4,75.0,30.19,SSE,153,0.0,1.0,71,0.00,,,0.00,weatherlink.com 1.10,2013-07-16 23:07:00,
2013-07-16 19:22:00,84.5,75.0,30.19,SSE,153,0.0,0.0,73,0.00,,,0.00,weatherlink.com 1.10,2013-07-16 23:22:00,
2013-07-16 19:37:00,83.8,76.0,30.20,SSE,153,0.0,0.0,76,0.00,,,0.00,weatherlink.com 1.10,2013-07-16 23:37:00,
2013-07-16 19:52:00,82.5,75.0,30.20,SSE,154,0.0,0.0,79,0.00,,,0.00,weatherlink.com 1.10,2013-07-16 23:52:00,
2013-07-16 20:07:00,81.0,75.0,30.21,SSE,153,0.0,0.0,83,0.00,,,0.00,weatherlink.com 1.10,2013-07-17 00:07:00,
2013-07-16 20:22:00,79.9,75.0,30.21,SSE,153,0.0,0.0,86,0.00,,,0.00,weatherlink.com 1.10,2013-07-17 00:22:00,
2013-07-16 20:37:00,78.5,75.0,30.21,SSE,153,0.0,0.0,89,0.00,,,0.00,weatherlink.com 1.10,2013-07-17 00:37:00,
2013-07-16 20:52:00,77.2,75.0,30.21,SSE,153,0.0,0.0,91,0.00,,,0.00,weatherlink.com 1.10,2013-07-17 00:52:00,
2013-07-16 21:07:00,76.2,74.0,30.21,SSE,153,0.0,0.0,93,0.00,,,0.00,weatherlink.com 1.10,2013-07-17 01:07:00,
2013-07-16 21:22:00,75.4,73.0,30.21,SSE,153,0.0,0.0,93,0.00,,,0.00,weatherlink.com 1.10,2013-07-17 01:22:00,
2013-07-16 21:37:00,74.8,73.0,30.22,SSE,153,0.0,0.0,94,0.00,,,0.00,weatherlink.com 1.10,2013-07-17 01:37:00,
2013-07-16 21:52:00,74.2,72.0,30.23,SSE,154,0.0,0.0,94,0.00,,,0.00,weatherlink.com 1.10,2013-07-17 01:52:00,
2013-07-16 22:07:00,73.7,72.0,30.23,SSE,153,0.0,0.0,95,0.00,,,0.00,weatherlink.com 1.10,2013-07-17 02:07:00,
2013-07-16 22:22:00,73.5,72.0,30.23,SSE,153,0.0,0.0,95,0.00,,,0.00,weatherlink.com 1.10,2013-07-17 02:22:00,
2013-07-16 22:37:00,73.1,72.0,30.23,SSE,153,0.0,0.0,95,0.00,,,0.00,weatherlink.com 1.10,2013-07-17 02:37:00,
2013-07-16 22:52:00,72.7,71.0,30.23,SSE,153,0.0,0.0,95,0.00,,,0.00,weatherlink.com 1.10,2013-07-17 02:52:00,
2013-07-16 23:07:00,72.6,71.0,30.22,SSE,153,0.0,0.0,96,0.00,,,0.00,weatherlink.com 1.10,2013-07-17 03:07:00,
2013-07-16 23:22:00,72.8,72.0,30.23,SSE,153,0.0,0.0,96,0.00,,,0.00,weatherlink.com 1.10,2013-07-17 03:22:00,
2013-07-16 23:37:00,72.3,71.0,30.22,SSE,153,0.0,1.0,96,0.00,,,0.00,weatherlink.com 1.10,2013-07-17 03:37:00,
2013-07-16 23:52:00,72.0,71.0,30.23,SSE,154,0.0,0.0,96,0.00,,,0.00,weatherlink.com 1.10,2013-07-17 03:52:00,